createdAt,value
2019-03-18T00:00:26.997Z,94926.42
2019-03-18T00:05:24.077Z,94928.89
2019-03-18T00:10:21.186Z,94909.36
2019-03-18T00:15:18.230Z,94914.75
2019-03-18T00:20:16.103Z,94927.27
2019-03-18T00:25:14.454Z,94918.13
2019-03-18T00:30:15.005Z,94925.27
2019-03-18T00:35:12.443Z,94915.20
2019-03-18T00:40:15.880Z,94915.16
2019-03-18T00:45:15.094Z,94910.34
2019-03-18T00:50:13.829Z,94907.14
2019-03-18T00:55:11.005Z,94920.02
2019-03-18T01:00:13.414Z,94933.80
2019-03-18T01:05:10.762Z,94934.13
2019-03-18T01:10:12.633Z,94923.80
2019-03-18T01:15:10.715Z,94921.81
2019-03-18T01:20:09.993Z,94929.20
2019-03-18T01:25:08.760Z,94916.25
2019-03-18T01:30:11.658Z,94912.25
2019-03-18T01:35:09.463Z,94907.13
2019-03-18T01:40:14.298Z,94904.32
2019-03-18T01:45:12.282Z,94907.06
2019-03-18T01:50:11.484Z,94911.77
2019-03-18T01:55:09.326Z,94905.16
2019-03-18T02:00:12.523Z,94909.73
2019-03-18T02:05:10.302Z,94917.83
2019-03-18T02:10:10.916Z,94906.75
2019-03-18T02:15:10.524Z,94918.85
2019-03-18T02:20:10.935Z,94910.55
2019-03-18T02:25:09.320Z,94915.42
2019-03-18T02:30:18.243Z,94910.37
2019-03-18T02:35:15.628Z,94913.69
2019-03-18T02:40:12.710Z,94918.30
2019-03-18T02:45:10.549Z,94929.89
2019-03-18T02:50:09.087Z,94927.59
2019-03-18T02:55:07.490Z,94934.13
2019-03-18T03:00:11.335Z,94943.96
2019-03-18T03:05:10.623Z,94957.24
2019-03-18T03:10:10.488Z,94958.79
2019-03-18T03:15:13.307Z,94955.29
2019-03-18T03:20:10.796Z,94954.75
2019-03-18T03:25:09.491Z,94952.39
2019-03-18T03:30:13.624Z,94961.19
2019-03-18T03:35:10.912Z,94953.64
2019-03-18T03:40:10.185Z,94953.00
2019-03-18T03:45:10.531Z,94959.89
2019-03-18T03:50:11.706Z,94960.16
2019-03-18T03:55:10.772Z,94964.02
2019-03-18T04:00:11.081Z,94975.16
2019-03-18T04:05:08.431Z,95021.45
2019-03-18T04:10:12.545Z,95055.02
2019-03-18T04:15:14.721Z,95093.13
2019-03-18T04:20:16.013Z,95111.40
2019-03-18T04:25:13.155Z,95128.70
2019-03-18T04:30:14.356Z,95152.44
2019-03-18T04:35:11.396Z,95164.77
2019-03-18T04:40:09.939Z,95170.98
2019-03-18T04:45:08.814Z,95185.88
2019-03-18T04:50:09.268Z,95192.84
2019-03-18T04:55:08.044Z,95213.52
2019-03-18T05:00:12.471Z,95230.13
2019-03-18T05:05:11.524Z,95228.37
2019-03-18T05:10:09.465Z,95242.19
2019-03-18T05:15:08.710Z,95252.58
2019-03-18T05:20:10.528Z,95264.62
2019-03-18T05:25:08.915Z,95275.13
2019-03-18T05:30:13.200Z,95286.38
2019-03-18T05:35:10.335Z,95308.42
2019-03-18T05:40:07.774Z,95315.19
2019-03-18T05:45:10.150Z,95321.14
2019-03-18T05:50:11.948Z,95337.95
2019-03-18T05:55:09.302Z,95342.95
2019-03-18T06:00:12.509Z,95361.38
2019-03-18T06:05:11.534Z,95363.17
2019-03-18T06:10:11.182Z,95376.66
2019-03-18T06:15:10.978Z,95392.15
2019-03-18T06:20:09.714Z,95398.28
2019-03-18T06:25:07.915Z,95398.30
2019-03-18T06:30:16.571Z,95416.25
2019-03-18T06:35:15.343Z,95424.64
2019-03-18T06:40:15.230Z,95434.13
2019-03-18T06:45:12.379Z,95438.80
2019-03-18T06:50:10.797Z,95440.81
2019-03-18T06:55:07.948Z,95447.89
2019-03-18T07:00:10.371Z,95457.86
2019-03-18T07:05:08.775Z,95456.70
2019-03-18T07:10:11.098Z,95472.04
2019-03-18T07:15:14.790Z,95474.16
2019-03-18T07:20:14.807Z,95483.73
2019-03-18T07:25:13.735Z,95492.95
2019-03-18T07:30:14.338Z,95485.97
2019-03-18T07:35:16.603Z,95493.27
2019-03-18T07:40:15.215Z,95498.21
2019-03-18T07:45:15.641Z,95496.72
2019-03-18T07:50:16.196Z,95507.05
2019-03-18T07:55:17.492Z,95499.80
2019-03-18T08:00:17.848Z,95506.89
2019-03-18T08:05:15.030Z,95508.50
2019-03-18T08:10:14.973Z,95518.83
2019-03-18T08:15:14.730Z,95529.87
2019-03-18T08:20:17.287Z,95536.63
2019-03-18T08:25:14.371Z,95547.45
2019-03-18T08:30:20.641Z,95549.92
2019-03-18T08:35:19.581Z,95551.78
2019-03-18T08:40:16.736Z,95548.12
2019-03-18T08:45:13.784Z,95550.64
2019-03-18T08:50:12.881Z,95537.40
2019-03-18T08:55:13.616Z,95528.03
2019-03-18T09:00:15.204Z,95556.63
2019-03-18T09:05:14.171Z,95566.67
2019-03-18T09:10:15.284Z,95573.92
2019-03-18T09:15:12.584Z,95578.81
2019-03-18T09:20:13.218Z,95582.30
2019-03-18T09:25:10.985Z,95598.33
2019-03-18T09:30:15.058Z,95596.12
2019-03-18T09:35:12.729Z,95576.17
2019-03-18T09:40:15.537Z,95564.17
2019-03-18T09:45:16.977Z,95569.19
2019-03-18T09:50:14.977Z,95601.19
2019-03-18T09:55:12.203Z,95612.77
2019-03-18T10:00:15.451Z,95622.92
2019-03-18T10:05:12.753Z,95622.66
2019-03-18T10:10:16.319Z,95633.86
2019-03-18T10:15:20.329Z,95648.37
2019-03-18T10:20:17.275Z,95671.57
2019-03-18T10:25:14.405Z,95678.75
2019-03-18T10:30:13.252Z,95677.80
2019-03-18T10:35:13.591Z,95672.45
2019-03-18T10:40:13.400Z,95687.03
2019-03-18T10:45:11.864Z,95687.97
2019-03-18T10:50:13.875Z,95701.34
2019-03-18T10:55:11.759Z,95699.58
2019-03-18T11:00:17.841Z,95697.91
2019-03-18T11:05:21.277Z,95676.92
2019-03-18T11:10:18.325Z,95682.61
2019-03-18T11:15:18.518Z,95688.02
2019-03-18T11:20:17.483Z,95707.77
2019-03-18T11:25:15.875Z,95718.53
2019-03-18T11:30:16.010Z,95713.11
2019-03-18T11:35:16.900Z,95703.12
2019-03-18T11:40:20.013Z,95669.45
2019-03-18T11:45:17.357Z,95691.95
2019-03-18T11:50:18.721Z,95694.67
2019-03-18T11:55:29.039Z,95699.81
2019-03-18T12:00:26.090Z,95702.87
2019-03-18T12:05:27.274Z,95699.63
2019-03-18T12:10:42.900Z,95693.84
2019-03-18T12:15:44.715Z,95672.89
2019-03-18T12:20:47.903Z,95645.64
2019-03-18T12:25:40.722Z,95660.79
2019-03-18T12:30:37.853Z,95678.49
2019-03-18T12:35:44.030Z,95689.80
2019-03-18T12:40:41.096Z,95693.09
2019-03-18T12:45:39.752Z,95701.66
2019-03-18T12:50:54.462Z,95700.26
2019-03-18T12:55:36.211Z,95710.34
2019-03-18T13:00:34.347Z,95700.45
2019-03-18T13:05:38.156Z,95705.41
2019-03-18T13:10:36.799Z,95692.63
2019-03-18T13:15:35.824Z,95686.20
2019-03-18T13:20:41.368Z,95687.72
2019-03-18T13:25:38.982Z,95686.02
2019-03-18T13:30:36.175Z,95682.95
2019-03-18T13:35:33.529Z,95673.53
2019-03-18T13:40:30.703Z,95682.14
2019-03-18T13:45:34.500Z,95699.39
2019-03-18T13:50:34.064Z,95704.16
2019-03-18T13:55:37.524Z,95708.81
2019-03-18T14:00:39.187Z,95699.95
2019-03-18T14:05:37.397Z,95721.89
2019-03-18T14:10:36.977Z,95723.11
2019-03-18T14:15:40.091Z,95718.84
2019-03-18T14:21:33.361Z,95735.77
2019-03-18T14:25:59.198Z,95725.33
2019-03-18T14:30:56.338Z,95743.62
2019-03-18T14:35:54.732Z,95739.79
2019-03-18T14:40:53.798Z,95721.86
2019-03-18T14:45:54.825Z,95734.91
2019-03-18T14:50:52.082Z,95728.47
2019-03-18T14:55:54.545Z,95742.21
2019-03-18T15:00:51.828Z,95756.61
2019-03-18T15:05:49.343Z,95750.53
2019-03-18T15:10:46.559Z,95745.97
2019-03-18T15:16:01.166Z,95741.69
2019-03-18T15:20:58.881Z,95733.92
2019-03-18T15:26:44.846Z,95757.45
2019-03-18T15:32:13.778Z,95770.25
2019-03-18T15:37:14.656Z,95769.20
2019-03-18T15:42:50.103Z,95768.97
2019-03-18T15:48:29.517Z,95782.12
2019-03-18T15:53:32.421Z,95779.83
2019-03-18T15:59:05.781Z,95808.10
2019-03-18T16:03:55.891Z,95814.77
2019-03-18T16:09:02.890Z,95811.88
2019-03-18T16:20:07.360Z,95817.22
2019-03-18T16:25:10.714Z,95824.34
2019-03-18T16:36:47.853Z,95812.97
2019-03-18T16:41:41.675Z,95839.86
2019-03-18T16:47:53.071Z,95837.41
2019-03-18T16:58:06.011Z,95852.86
2019-03-18T17:09:30.245Z,95860.97
2019-03-18T17:14:39.234Z,95854.08
2019-03-18T17:20:06.701Z,95877.06
2019-03-18T17:25:11.406Z,95852.34
2019-03-18T17:30:22.448Z,95860.38
2019-03-18T17:41:10.939Z,95888.55
2019-03-18T17:57:47.912Z,95910.45
2019-03-18T18:02:52.954Z,95911.16
2019-03-18T18:07:53.665Z,95919.58
2019-03-18T18:12:54.639Z,95915.56
2019-03-18T18:17:57.109Z,95914.91
2019-03-18T18:23:14.668Z,95936.38
2019-03-18T18:28:20.714Z,95936.90
2019-03-18T18:33:29.605Z,95947.20
2019-03-18T19:38:57.727Z,95981.73
2019-03-18T19:51:05.048Z,95983.83
2019-03-18T20:08:32.559Z,96022.61
2019-03-18T22:00:50.968Z,96104.05
2019-03-18T22:13:02.961Z,96112.05
2019-03-18T23:17:06.806Z,96153.33
